createdAt,value
2022-07-29T00:02:26.383Z,10.30
2022-07-29T00:04:53.953Z,11.53
2022-07-29T00:07:21.541Z,11.17
2022-07-29T00:09:51.995Z,10.00
2022-07-29T00:12:25.138Z,11.10
2022-07-29T00:14:53.497Z,10.87
2022-07-29T00:17:20.651Z,12.27
2022-07-29T00:19:47.817Z,13.07
2022-07-29T00:22:14.981Z,13.27
2022-07-29T00:24:42.171Z,13.00
2022-07-29T00:27:09.309Z,13.60
2022-07-29T00:29:36.438Z,11.53
2022-07-29T00:32:04.115Z,16.00
2022-07-29T00:34:50.127Z,14.43
2022-07-29T00:37:17.357Z,13.43
2022-07-29T00:39:44.477Z,13.37
2022-07-29T00:42:11.790Z,11.00
2022-07-29T00:44:42.558Z,13.67
2022-07-29T00:47:10.770Z,12.07
2022-07-29T00:49:39.885Z,12.07
2022-07-29T00:52:07.777Z,12.93
2022-07-29T00:54:35.735Z,15.40
2022-07-29T00:57:07.643Z,13.60
2022-07-29T00:59:35.556Z,10.87
2022-07-29T01:02:03.468Z,14.37
2022-07-29T01:04:31.171Z,11.30
2022-07-29T01:06:58.460Z,12.37
2022-07-29T01:09:34.460Z,10.90
2022-07-29T01:12:15.247Z,12.47
2022-07-29T01:14:42.544Z,11.27
2022-07-29T01:17:14.216Z,13.07
2022-07-29T01:19:50.614Z,11.27
2022-07-29T01:22:27.303Z,12.20
2022-07-29T01:24:54.382Z,12.83
2022-07-29T01:27:27.387Z,12.37
2022-07-29T01:29:56.939Z,11.13
2022-07-29T01:32:28.932Z,13.40
2022-07-29T01:34:56.624Z,10.60
2022-07-29T01:37:42.378Z,13.07
2022-07-29T01:40:13.733Z,13.63
2022-07-29T01:46:13.299Z,12.53
2022-07-29T01:48:46.687Z,11.17
2022-07-29T01:51:22.623Z,15.23
2022-07-29T01:53:53.585Z,12.03
2022-07-29T01:56:21.586Z,13.53
2022-07-29T01:58:49.854Z,10.77
2022-07-29T02:01:17.828Z,11.57
2022-07-29T02:03:46.002Z,17.57
2022-07-29T02:06:13.885Z,12.87
2022-07-29T02:08:41.067Z,14.97
2022-07-29T02:11:08.664Z,13.13
2022-07-29T02:13:37.324Z,10.70
2022-07-29T02:16:06.346Z,15.00
2022-07-29T02:18:34.269Z,12.30
2022-07-29T02:21:02.157Z,13.63
2022-07-29T02:23:29.512Z,11.23
2022-07-29T02:25:58.780Z,11.00
2022-07-29T02:28:27.271Z,13.97
2022-07-29T02:30:55.394Z,14.43
2022-07-29T02:33:23.389Z,12.77
2022-07-29T02:35:50.567Z,22.13
2022-07-29T02:38:36.768Z,13.90
2022-07-29T02:41:06.699Z,10.87
2022-07-29T02:43:35.773Z,13.37
2022-07-29T02:46:04.394Z,11.83
2022-07-29T02:48:38.014Z,9.90
2022-07-29T02:51:10.351Z,11.67
2022-07-29T02:53:43.348Z,12.83
2022-07-29T02:56:12.878Z,10.57
2022-07-29T02:58:42.034Z,12.20
2022-07-29T03:01:22.196Z,7.77
2022-07-29T03:03:50.650Z,11.03
2022-07-29T03:06:30.936Z,11.80
2022-07-29T03:09:12.933Z,14.20
2022-07-29T03:11:49.666Z,11.20
2022-07-29T03:14:18.590Z,10.00
2022-07-29T03:16:46.322Z,11.83
2022-07-29T03:19:13.864Z,10.00
2022-07-29T03:21:41.031Z,12.77
2022-07-29T03:24:10.797Z,9.57
2022-07-29T03:26:38.364Z,9.20
2022-07-29T03:29:05.515Z,16.03
2022-07-29T03:31:33.514Z,13.77
2022-07-29T03:34:00.909Z,10.70
2022-07-29T03:36:28.171Z,7.57
2022-07-29T03:38:55.598Z,12.13
2022-07-29T03:41:24.295Z,11.73
2022-07-29T03:43:51.967Z,12.40
2022-07-29T03:46:19.536Z,11.17
2022-07-29T03:48:48.213Z,12.67
2022-07-29T03:51:15.642Z,11.17
2022-07-29T03:53:43.156Z,13.60
2022-07-29T03:56:11.727Z,12.37
2022-07-29T03:58:39.374Z,13.27
2022-07-29T04:01:06.726Z,10.97
2022-07-29T04:03:33.978Z,10.80
2022-07-29T04:06:02.102Z,9.33
2022-07-29T04:08:29.245Z,14.47
2022-07-29T04:10:56.577Z,11.50
2022-07-29T04:13:23.784Z,15.77
2022-07-29T04:15:51.133Z,9.73
2022-07-29T04:18:18.366Z,10.57
2022-07-29T04:20:45.505Z,10.43
2022-07-29T04:23:12.631Z,15.40
2022-07-29T04:25:43.088Z,13.33
2022-07-29T04:28:11.135Z,10.83
2022-07-29T04:30:39.153Z,10.13
2022-07-29T04:33:07.220Z,11.70
2022-07-29T04:35:50.229Z,12.20
2022-07-29T04:38:19.553Z,9.50
2022-07-29T04:40:47.139Z,11.70
2022-07-29T04:43:15.578Z,9.50
2022-07-29T04:45:42.839Z,9.27
2022-07-29T04:48:10.183Z,10.93
2022-07-29T04:50:39.969Z,15.17
2022-07-29T04:53:07.366Z,10.37
2022-07-29T04:55:34.647Z,9.13
2022-07-29T04:58:06.117Z,10.90
2022-07-29T05:00:33.782Z,10.93
2022-07-29T05:03:01.234Z,10.77
2022-07-29T05:05:28.477Z,11.13
2022-07-29T05:07:56.219Z,13.52
2022-07-29T05:10:23.432Z,12.57
2022-07-29T05:12:50.646Z,8.55
2022-07-29T05:15:18.606Z,10.27
2022-07-29T05:17:46.196Z,11.27
2022-07-29T05:20:13.359Z,10.30
2022-07-29T05:22:40.490Z,10.68
2022-07-29T05:25:09.305Z,10.25
2022-07-29T05:27:37.528Z,10.15
2022-07-29T05:30:04.965Z,9.40
2022-07-29T05:32:32.791Z,10.30
2022-07-29T05:34:59.954Z,12.57
2022-07-29T05:37:27.137Z,10.82
2022-07-29T05:39:56.601Z,9.93
2022-07-29T05:42:24.689Z,10.88
2022-07-29T05:44:51.858Z,7.35
2022-07-29T05:47:19.020Z,8.07
2022-07-29T05:49:47.017Z,11.65
2022-07-29T05:52:14.287Z,11.73
2022-07-29T05:54:41.494Z,15.48
2022-07-29T05:57:08.706Z,14.82
2022-07-29T05:59:39.084Z,14.43
2022-07-29T06:02:06.498Z,12.88
2022-07-29T06:04:34.689Z,13.82
2022-07-29T06:07:02.740Z,12.02
2022-07-29T06:09:29.988Z,9.95
2022-07-29T06:11:57.229Z,10.85
2022-07-29T06:14:24.348Z,11.23
2022-07-29T06:16:51.599Z,10.60
2022-07-29T06:19:18.796Z,10.70
2022-07-29T06:21:46.452Z,9.45
2022-07-29T06:24:14.251Z,11.35
2022-07-29T06:26:42.066Z,14.15
2022-07-29T06:29:09.479Z,15.93
2022-07-29T06:31:36.626Z,13.40
2022-07-29T06:34:03.798Z,16.38
2022-07-29T06:36:32.208Z,12.90
2022-07-29T06:38:59.334Z,17.15
2022-07-29T06:41:27.028Z,11.07
2022-07-29T06:43:54.488Z,14.30
2022-07-29T06:46:23.018Z,17.38
2022-07-29T06:48:50.529Z,12.88
2022-07-29T06:51:22.250Z,15.18
2022-07-29T06:53:58.147Z,16.63
2022-07-29T06:56:28.018Z,18.90
2022-07-29T06:58:55.311Z,10.55
2022-07-29T07:01:22.655Z,7.57
2022-07-29T07:03:49.888Z,16.83
2022-07-29T07:06:17.307Z,10.18
2022-07-29T07:08:44.662Z,12.00
2022-07-29T07:11:12.245Z,16.70
2022-07-29T07:13:39.377Z,11.32
2022-07-29T07:16:06.877Z,9.13
2022-07-29T07:18:34.110Z,10.18
2022-07-29T07:21:01.255Z,8.80
2022-07-29T07:23:28.441Z,10.20
2022-07-29T07:25:55.651Z,15.32
2022-07-29T07:28:24.626Z,9.32
2022-07-29T07:30:52.525Z,11.45
2022-07-29T07:33:19.738Z,9.85
2022-07-29T07:35:46.929Z,12.75
2022-07-29T07:38:14.173Z,10.13
2022-07-29T07:40:41.729Z,9.75
2022-07-29T07:43:08.847Z,9.30
2022-07-29T07:45:38.100Z,9.93
2022-07-29T07:48:05.809Z,12.20
2022-07-29T07:50:33.018Z,13.90
2022-07-29T07:53:02.910Z,13.10
2022-07-29T07:55:42.389Z,10.15
2022-07-29T07:58:17.499Z,12.07
2022-07-29T08:00:44.841Z,10.82
2022-07-29T08:03:17.218Z,11.70
2022-07-29T08:05:44.906Z,14.55
2022-07-29T08:08:12.093Z,12.38
2022-07-29T08:10:54.215Z,9.40
2022-07-29T08:13:22.364Z,9.75
2022-07-29T08:15:58.403Z,10.43
2022-07-29T08:18:26.091Z,9.95
2022-07-29T08:20:53.205Z,7.65
2022-07-29T08:23:20.683Z,11.82
2022-07-29T08:25:50.106Z,11.30
2022-07-29T08:28:17.808Z,8.32
2022-07-29T08:30:44.986Z,9.73
2022-07-29T08:33:12.188Z,10.00
2022-07-29T08:35:40.269Z,6.75
2022-07-29T08:38:07.447Z,11.48
2022-07-29T08:40:34.624Z,7.97
2022-07-29T08:43:11.136Z,8.85
2022-07-29T08:45:48.582Z,10.93
2022-07-29T08:48:22.968Z,16.90
2022-07-29T08:50:51.637Z,12.57
2022-07-29T08:53:19.319Z,10.93
2022-07-29T08:55:47.890Z,11.10
2022-07-29T08:58:15.914Z,10.73
2022-07-29T09:00:44.630Z,11.85
2022-07-29T09:03:14.160Z,9.25
2022-07-29T09:05:47.746Z,10.32
2022-07-29T09:08:15.822Z,5.82
2022-07-29T09:10:43.105Z,8.57
2022-07-29T09:13:10.282Z,15.88
2022-07-29T09:15:37.627Z,10.93
2022-07-29T09:18:04.805Z,8.93
2022-07-29T09:20:50.507Z,8.60
2022-07-29T09:23:23.366Z,11.45
2022-07-29T09:25:52.253Z,13.35
2022-07-29T09:28:19.560Z,8.05
2022-07-29T09:30:52.740Z,8.63
2022-07-29T09:33:20.294Z,11.73
2022-07-29T09:35:57.018Z,7.50
2022-07-29T09:38:24.568Z,10.85
2022-07-29T09:41:05.589Z,17.42
2022-07-29T09:43:33.978Z,100.95
2022-07-29T09:46:16.278Z,24.00
2022-07-29T09:48:43.533Z,12.88
2022-07-29T09:51:24.271Z,17.40
2022-07-29T09:53:55.671Z,12.93
2022-07-29T09:56:39.895Z,14.13
2022-07-29T09:59:07.744Z,19.98
2022-07-29T10:01:35.578Z,11.20
2022-07-29T10:04:02.724Z,13.32
2022-07-29T10:06:29.859Z,14.05
2022-07-29T10:09:08.244Z,10.95
2022-07-29T10:11:49.531Z,11.75
2022-07-29T10:14:22.553Z,9.85
2022-07-29T10:16:49.728Z,11.85
2022-07-29T10:19:17.282Z,14.75
2022-07-29T10:21:45.794Z,10.63
2022-07-29T10:24:14.996Z,11.90
2022-07-29T10:26:42.508Z,9.32
2022-07-29T10:29:09.608Z,12.68
2022-07-29T10:31:47.889Z,9.98
2022-07-29T10:34:33.732Z,9.85
2022-07-29T10:37:13.204Z,10.65
2022-07-29T10:39:44.542Z,11.35
2022-07-29T10:42:29.693Z,10.23
2022-07-29T10:45:00.836Z,8.88
2022-07-29T10:47:28.459Z,7.85
2022-07-29T10:50:01.229Z,12.02
2022-07-29T10:52:47.247Z,9.70
2022-07-29T10:55:47.795Z,10.98
2022-07-29T10:58:19.342Z,8.07
2022-07-29T11:00:48.045Z,7.40
2022-07-29T11:03:35.210Z,8.75
2022-07-29T11:06:03.113Z,10.10
2022-07-29T11:08:36.023Z,7.82
2022-07-29T11:11:22.221Z,9.63
2022-07-29T11:13:51.493Z,8.05
2022-07-29T11:16:23.010Z,6.57
2022-07-29T11:19:11.222Z,12.75
2022-07-29T11:21:54.708Z,10.82
2022-07-29T11:24:29.976Z,6.43
2022-07-29T11:27:20.100Z,10.43
2022-07-29T11:29:53.347Z,7.30
2022-07-29T11:32:22.749Z,11.23
2022-07-29T11:34:51.600Z,7.40
2022-07-29T11:40:08.009Z,7.47
2022-07-29T11:42:35.874Z,7.10
2022-07-29T11:45:43.363Z,6.43
2022-07-29T11:48:27.990Z,10.07
2022-07-29T11:50:48.152Z,10.27
2022-07-29T11:53:16.093Z,6.65
2022-07-29T11:55:51.113Z,9.23
2022-07-29T11:58:25.212Z,6.97
2022-07-29T12:00:55.737Z,7.97
2022-07-29T12:03:35.436Z,6.97
2022-07-29T12:06:04.065Z,9.10
2022-07-29T12:07:01.663Z,5.50
2022-07-29T12:08:31.535Z,7.18
2022-07-29T12:10:58.732Z,8.18
2022-07-29T12:13:37.861Z,7.85
2022-07-29T12:16:05.603Z,8.85
2022-07-29T12:18:33.293Z,7.28
2022-07-29T12:21:04.555Z,8.35
2022-07-29T12:23:35.798Z,7.75
2022-07-29T12:26:10.593Z,11.63
2022-07-29T12:28:39.593Z,6.50
2022-07-29T12:31:08.206Z,8.50
2022-07-29T12:33:36.008Z,7.50
2022-07-29T12:36:07.479Z,7.43
2022-07-29T12:38:36.957Z,7.22
2022-07-29T12:41:04.917Z,7.78
2022-07-29T12:43:32.589Z,10.18
2022-07-29T12:46:12.914Z,10.13
2022-07-29T12:48:41.191Z,7.07
2022-07-29T12:51:09.742Z,10.75
2022-07-29T12:53:37.351Z,8.40
2022-07-29T12:56:15.608Z,10.07
2022-07-29T12:58:51.307Z,10.82
2022-07-29T13:01:20.906Z,8.32
2022-07-29T13:03:56.969Z,9.60
2022-07-29T13:06:37.322Z,7.43
2022-07-29T13:09:05.955Z,11.00
2022-07-29T13:11:34.216Z,15.73
2022-07-29T13:14:06.593Z,9.48
2022-07-29T13:16:34.428Z,12.25
2022-07-29T13:19:08.871Z,11.13
2022-07-29T13:21:36.092Z,10.85
2022-07-29T13:24:03.405Z,12.25
2022-07-29T13:26:30.582Z,10.27
2022-07-29T13:28:57.752Z,10.43
2022-07-29T13:31:25.151Z,10.48
2022-07-29T13:33:52.380Z,13.77
2022-07-29T13:36:20.245Z,15.35
2022-07-29T13:38:47.412Z,10.50
2022-07-29T13:41:14.522Z,13.90
2022-07-29T13:43:41.647Z,13.10
2022-07-29T13:46:09.319Z,16.63
2022-07-29T13:48:36.529Z,18.02
2022-07-29T13:51:03.685Z,14.98
2022-07-29T13:53:30.829Z,20.58
2022-07-29T13:55:58.023Z,18.88
2022-07-29T13:58:25.293Z,18.20
2022-07-29T14:00:52.499Z,14.80
2022-07-29T14:03:19.677Z,14.10
2022-07-29T14:05:46.803Z,15.37
2022-07-29T14:08:13.937Z,12.98
2022-07-29T14:10:41.125Z,13.98
2022-07-29T14:13:24.370Z,12.07
2022-07-29T14:15:51.968Z,18.38
2022-07-29T14:18:19.097Z,21.13
2022-07-29T14:20:46.322Z,21.17
2022-07-29T14:23:14.382Z,16.48
2022-07-29T14:25:43.617Z,13.00
2022-07-29T14:28:11.846Z,12.65
2022-07-29T14:30:41.915Z,14.82
2022-07-29T14:33:09.038Z,13.80
2022-07-29T14:35:36.163Z,17.77
2022-07-29T14:38:03.283Z,20.70
2022-07-29T14:40:30.494Z,11.88
2022-07-29T14:42:57.678Z,15.13
2022-07-29T14:45:24.814Z,14.25
2022-07-29T14:47:56.434Z,12.05
2022-07-29T14:50:31.859Z,17.27
2022-07-29T14:52:59.459Z,11.68
2022-07-29T14:55:26.727Z,13.80
2022-07-29T14:58:03.115Z,14.03
2022-07-29T15:00:35.352Z,12.73
2022-07-29T15:03:03.167Z,12.33
2022-07-29T15:05:31.355Z,8.57
2022-07-29T15:07:58.704Z,8.73
2022-07-29T15:10:27.980Z,10.90
2022-07-29T15:12:55.441Z,12.37
2022-07-29T15:15:22.721Z,11.50
2022-07-29T15:17:49.827Z,10.07
2022-07-29T15:20:17.014Z,13.80
2022-07-29T15:22:44.220Z,9.97
2022-07-29T15:25:11.777Z,13.30
2022-07-29T15:27:38.939Z,13.67
2022-07-29T15:30:06.433Z,10.03
2022-07-29T15:32:33.622Z,9.73
2022-07-29T15:35:00.767Z,9.27
2022-07-29T15:37:29.316Z,9.83
2022-07-29T15:40:16.433Z,9.30
2022-07-29T15:42:43.558Z,9.20
2022-07-29T15:45:10.853Z,8.60
2022-07-29T15:47:37.985Z,8.47
2022-07-29T15:50:05.506Z,10.53
2022-07-29T15:52:32.612Z,7.73
2022-07-29T15:55:00.238Z,8.13
2022-07-29T15:57:27.372Z,9.10
2022-07-29T15:59:54.779Z,9.47
2022-07-29T16:02:22.037Z,9.20
2022-07-29T16:04:49.214Z,8.87
2022-07-29T16:07:16.645Z,12.00
2022-07-29T16:09:49.348Z,11.27
2022-07-29T16:12:19.740Z,11.70
2022-07-29T16:14:49.300Z,11.57
2022-07-29T16:17:16.663Z,10.90
2022-07-29T16:19:44.455Z,10.53
2022-07-29T16:22:11.829Z,9.90
2022-07-29T16:24:39.299Z,13.03
2022-07-29T16:27:06.597Z,12.67
2022-07-29T16:29:33.985Z,14.10
2022-07-29T16:32:01.826Z,12.00
2022-07-29T16:34:29.592Z,11.93
2022-07-29T16:36:56.701Z,12.63
2022-07-29T16:39:23.814Z,11.43
2022-07-29T16:41:51.051Z,13.07
2022-07-29T16:44:18.205Z,12.40
2022-07-29T16:46:45.689Z,17.17
2022-07-29T16:49:19.019Z,12.93
2022-07-29T16:51:47.777Z,13.20
2022-07-29T16:54:15.071Z,11.33
2022-07-29T16:56:42.310Z,9.73
2022-07-29T16:59:09.423Z,11.77
2022-07-29T17:01:36.617Z,12.40
2022-07-29T17:04:06.663Z,13.27
2022-07-29T17:06:35.121Z,10.97
2022-07-29T17:09:06.123Z,11.17
2022-07-29T17:11:52.452Z,13.17
2022-07-29T17:14:24.162Z,12.07
2022-07-29T17:17:00.397Z,12.97
2022-07-29T17:19:32.923Z,12.80
2022-07-29T17:22:10.077Z,12.80
2022-07-29T17:24:40.293Z,16.43
2022-07-29T17:27:08.391Z,15.60
2022-07-29T17:29:35.528Z,12.73
2022-07-29T17:32:03.550Z,11.27
2022-07-29T17:34:31.828Z,12.60
2022-07-29T17:36:59.189Z,10.13
2022-07-29T17:39:26.558Z,11.57
2022-07-29T17:41:53.693Z,10.80
2022-07-29T17:44:21.339Z,11.33
2022-07-29T17:46:48.573Z,12.33
2022-07-29T17:49:15.795Z,15.17
2022-07-29T17:51:43.073Z,10.13
2022-07-29T17:54:10.201Z,12.60
2022-07-29T17:56:37.337Z,14.90
2022-07-29T17:59:06.679Z,14.00
2022-07-29T18:01:34.361Z,13.37
2022-07-29T18:04:02.790Z,12.67
2022-07-29T18:06:30.065Z,14.60
2022-07-29T18:08:57.268Z,12.80
2022-07-29T18:11:24.479Z,13.33
2022-07-29T18:13:51.661Z,12.80
2022-07-29T18:16:19.651Z,15.13
2022-07-29T18:18:47.012Z,13.30
2022-07-29T18:21:14.398Z,13.27
2022-07-29T18:23:42.337Z,13.37
2022-07-29T18:26:10.295Z,13.33
2022-07-29T18:28:37.748Z,14.13
2022-07-29T18:31:07.203Z,12.00
2022-07-29T18:33:34.381Z,16.63
2022-07-29T18:36:10.546Z,13.87
2022-07-29T18:38:39.196Z,13.17
2022-07-29T18:41:06.341Z,13.63
2022-07-29T18:43:33.625Z,17.13
2022-07-29T18:46:00.738Z,14.20
2022-07-29T18:48:27.873Z,16.90
2022-07-29T18:50:55.002Z,17.50
2022-07-29T18:53:22.258Z,15.73
2022-07-29T18:55:49.370Z,17.17
2022-07-29T18:58:16.506Z,17.23
2022-07-29T19:00:43.646Z,19.53
2022-07-29T19:03:10.888Z,22.17
2022-07-29T19:05:38.157Z,18.37
2022-07-29T19:08:05.435Z,18.13
2022-07-29T19:10:32.574Z,22.73
2022-07-29T19:12:59.725Z,22.37
2022-07-29T19:15:26.993Z,21.47
2022-07-29T19:17:59.065Z,18.83
2022-07-29T19:20:28.336Z,20.83
2022-07-29T19:22:55.541Z,20.60
2022-07-29T19:25:23.250Z,21.53
2022-07-29T19:27:50.405Z,22.97
2022-07-29T19:30:17.568Z,22.67
2022-07-29T19:32:44.676Z,22.73
2022-07-29T19:35:24.176Z,20.63
2022-07-29T19:37:51.989Z,20.93
2022-07-29T19:40:19.203Z,20.00
2022-07-29T19:42:48.193Z,27.07
2022-07-29T19:45:15.366Z,21.60
2022-07-29T19:47:42.513Z,26.60
2022-07-29T19:50:10.194Z,25.07
2022-07-29T19:52:37.415Z,22.20
2022-07-29T19:55:07.585Z,22.43
2022-07-29T19:57:41.167Z,23.57
2022-07-29T20:00:11.065Z,26.20
2022-07-29T20:02:39.247Z,23.93
2022-07-29T20:05:06.932Z,24.93
2022-07-29T20:07:34.298Z,22.97
2022-07-29T20:10:01.446Z,29.53
2022-07-29T20:12:28.679Z,26.37
2022-07-29T20:14:56.059Z,24.70
2022-07-29T20:17:23.279Z,22.80
2022-07-29T20:19:51.001Z,18.20
2022-07-29T20:22:20.846Z,20.87
2022-07-29T20:24:49.225Z,18.23
2022-07-29T20:27:16.435Z,21.83
2022-07-29T20:29:43.755Z,21.30
2022-07-29T20:32:12.443Z,23.03
2022-07-29T20:34:41.366Z,21.00
2022-07-29T20:37:14.397Z,17.70
2022-07-29T20:39:46.369Z,16.60
2022-07-29T20:42:13.569Z,21.17
2022-07-29T20:44:40.746Z,19.97
2022-07-29T20:47:08.105Z,20.13
2022-07-29T20:49:36.341Z,24.33
2022-07-29T20:52:03.907Z,27.47
2022-07-29T20:54:31.150Z,28.73
2022-07-29T20:56:58.603Z,29.43
2022-07-29T20:59:25.927Z,21.50
2022-07-29T21:01:55.168Z,21.77
2022-07-29T21:04:22.409Z,20.57
2022-07-29T21:06:58.027Z,22.23
2022-07-29T21:09:25.324Z,25.37
2022-07-29T21:11:52.445Z,22.90
2022-07-29T21:14:39.805Z,22.80
2022-07-29T21:17:10.214Z,19.27
2022-07-29T21:19:37.477Z,26.07
2022-07-29T21:22:04.644Z,22.00
2022-07-29T21:24:32.001Z,21.63
2022-07-29T21:27:21.339Z,21.60
2022-07-29T21:29:48.832Z,22.87
2022-07-29T21:32:29.685Z,24.63
2022-07-29T21:34:57.388Z,23.33
2022-07-29T21:37:24.535Z,26.70
2022-07-29T21:39:51.914Z,24.60
2022-07-29T21:42:19.461Z,26.10
2022-07-29T21:44:46.605Z,25.77
2022-07-29T21:47:13.765Z,26.70
2022-07-29T21:49:40.907Z,28.20
2022-07-29T21:52:08.978Z,27.43
2022-07-29T21:54:36.253Z,29.97
2022-07-29T21:57:04.041Z,30.37
2022-07-29T21:59:31.890Z,28.87
2022-07-29T22:02:01.939Z,28.03
2022-07-29T22:04:29.501Z,29.17
2022-07-29T22:06:57.729Z,33.63
2022-07-29T22:09:25.399Z,27.60
2022-07-29T22:11:52.586Z,28.70
2022-07-29T22:14:19.990Z,27.40
2022-07-29T22:16:47.645Z,30.47
2022-07-29T22:19:15.330Z,28.43
2022-07-29T22:21:42.594Z,33.37
2022-07-29T22:24:10.592Z,34.23
2022-07-29T22:26:38.367Z,32.43
2022-07-29T22:29:05.557Z,37.33
2022-07-29T22:31:32.696Z,34.97
2022-07-29T22:33:59.968Z,33.57
2022-07-29T22:36:27.438Z,32.90
2022-07-29T22:38:54.640Z,38.20
2022-07-29T22:41:21.799Z,34.53
2022-07-29T22:43:48.910Z,38.43
2022-07-29T22:46:16.151Z,37.80
2022-07-29T22:48:43.455Z,35.63
2022-07-29T22:51:10.627Z,35.47
2022-07-29T22:53:37.858Z,35.77
2022-07-29T22:56:05.182Z,37.67
2022-07-29T22:58:32.327Z,36.53
2022-07-29T23:00:59.503Z,42.20
2022-07-29T23:03:26.741Z,38.67
2022-07-29T23:05:53.900Z,37.07
2022-07-29T23:08:21.112Z,38.53
2022-07-29T23:10:48.246Z,39.67
2022-07-29T23:13:15.803Z,38.63
2022-07-29T23:15:43.140Z,37.73
2022-07-29T23:18:10.377Z,37.87
2022-07-29T23:20:37.576Z,37.97
2022-07-29T23:23:04.721Z,38.03
2022-07-29T23:25:31.885Z,35.43
2022-07-29T23:27:59.090Z,35.97
2022-07-29T23:30:26.334Z,37.17
2022-07-29T23:32:53.831Z,38.27
2022-07-29T23:35:21.100Z,38.70
2022-07-29T23:37:48.237Z,38.27
2022-07-29T23:40:15.684Z,36.43
2022-07-29T23:42:43.128Z,37.50
2022-07-29T23:45:11.086Z,38.93
2022-07-29T23:47:38.230Z,42.03
2022-07-29T23:50:06.082Z,45.27
2022-07-29T23:52:33.201Z,43.77
2022-07-29T23:55:36.766Z,40.53
2022-07-29T23:57:50.632Z,42.57
